sensor_id;sensor_type;location;lat;lon;timestamp;temperature;humidity
2873;DHT22;1444;49.166;7.312;2023-05-01T00:01:45;10.60;95.40
2873;DHT22;1444;49.166;7.312;2023-05-01T00:04:13;10.60;95.60
2873;DHT22;1444;49.166;7.312;2023-05-01T00:06:41;10.60;95.20
2873;DHT22;1444;49.166;7.312;2023-05-01T00:09:08;10.60;95.40
2873;DHT22;1444;49.166;7.312;2023-05-01T00:11:34;10.90;95.80
2873;DHT22;1444;49.166;7.312;2023-05-01T00:14:01;10.50;95.60
2873;DHT22;1444;49.166;7.312;2023-05-01T00:16:28;10.50;95.80
2873;DHT22;1444;49.166;7.312;2023-05-01T00:18:55;10.40;95.70
2873;DHT22;1444;49.166;7.312;2023-05-01T00:21:23;10.40;95.50
2873;DHT22;1444;49.166;7.312;2023-05-01T00:23:49;10.40;95.70
2873;DHT22;1444;49.166;7.312;2023-05-01T00:26:16;10.30;95.90
2873;DHT22;1444;49.166;7.312;2023-05-01T00:28:43;10.30;96.00
2873;DHT22;1444;49.166;7.312;2023-05-01T00:31:10;10.30;95.80
2873;DHT22;1444;49.166;7.312;2023-05-01T00:33:36;10.30;95.70
2873;DHT22;1444;49.166;7.312;2023-05-01T00:36:03;10.30;95.40
2873;DHT22;1444;49.166;7.312;2023-05-01T00:38:31;10.20;95.40
2873;DHT22;1444;49.166;7.312;2023-05-01T00:40:58;10.20;95.20
2873;DHT22;1444;49.166;7.312;2023-05-01T00:43:25;10.20;95.50
2873;DHT22;1444;49.166;7.312;2023-05-01T00:45:51;10.20;95.30
2873;DHT22;1444;49.166;7.312;2023-05-01T00:48:18;10.20;95.30
2873;DHT22;1444;49.166;7.312;2023-05-01T00:50:45;10.20;95.10
2873;DHT22;1444;49.166;7.312;2023-05-01T00:53:13;10.10;95.50
2873;DHT22;1444;49.166;7.312;2023-05-01T00:55:41;10.10;95.50
2873;DHT22;1444;49.166;7.312;2023-05-01T00:58:09;10.00;95.40
2873;DHT22;1444;49.166;7.312;2023-05-01T01:00:36;9.90;96.30
2873;DHT22;1444;49.166;7.312;2023-05-01T01:03:03;9.80;96.50
2873;DHT22;1444;49.166;7.312;2023-05-01T01:05:31;9.80;96.50
2873;DHT22;1444;49.166;7.312;2023-05-01T01:08:07;9.80;96.40
2873;DHT22;1444;49.166;7.312;2023-05-01T01:10:42;9.90;96.40
2873;DHT22;1444;49.166;7.312;2023-05-01T01:13:17;9.90;96.30
2873;DHT22;1444;49.166;7.312;2023-05-01T01:15:52;9.90;96.40
2873;DHT22;1444;49.166;7.312;2023-05-01T01:18:25;9.90;96.50
2873;DHT22;1444;49.166;7.312;2023-05-01T01:21:01;9.90;96.50
2873;DHT22;1444;49.166;7.312;2023-05-01T01:24:02;9.90;96.40
2873;DHT22;1444;49.166;7.312;2023-05-01T01:26:58;9.90;96.50
2873;DHT22;1444;49.166;7.312;2023-05-01T01:29:55;9.90;96.40
2873;DHT22;1444;49.166;7.312;2023-05-01T01:32:55;9.90;96.40
2873;DHT22;1444;49.166;7.312;2023-05-01T01:35:28;9.70;96.70
2873;DHT22;1444;49.166;7.312;2023-05-01T01:38:00;9.70;96.40
2873;DHT22;1444;49.166;7.312;2023-05-01T01:40:32;9.80;96.50
2873;DHT22;1444;49.166;7.312;2023-05-01T01:43:04;9.80;96.60
2873;DHT22;1444;49.166;7.312;2023-05-01T01:45:36;9.80;96.80
2873;DHT22;1444;49.166;7.312;2023-05-01T01:48:04;9.80;96.80
2873;DHT22;1444;49.166;7.312;2023-05-01T01:50:34;9.90;96.70
2873;DHT22;1444;49.166;7.312;2023-05-01T01:53:04;9.80;96.60
2873;DHT22;1444;49.166;7.312;2023-05-01T01:55:33;9.80;96.50
2873;DHT22;1444;49.166;7.312;2023-05-01T01:58:02;9.80;96.50
2873;DHT22;1444;49.166;7.312;2023-05-01T02:00:29;9.80;96.70
2873;DHT22;1444;49.166;7.312;2023-05-01T02:02:58;9.80;97.00
2873;DHT22;1444;49.166;7.312;2023-05-01T02:05:26;9.70;96.90
2873;DHT22;1444;49.166;7.312;2023-05-01T02:07:55;9.70;96.80
2873;DHT22;1444;49.166;7.312;2023-05-01T02:10:23;9.80;96.60
2873;DHT22;1444;49.166;7.312;2023-05-01T02:12:52;9.80;96.50
2873;DHT22;1444;49.166;7.312;2023-05-01T02:15:21;9.70;96.70
2873;DHT22;1444;49.166;7.312;2023-05-01T02:17:49;9.80;96.90
2873;DHT22;1444;49.166;7.312;2023-05-01T02:20:17;9.80;96.90
2873;DHT22;1444;49.166;7.312;2023-05-01T02:22:46;9.70;96.70
2873;DHT22;1444;49.166;7.312;2023-05-01T02:25:15;9.70;96.70
2873;DHT22;1444;49.166;7.312;2023-05-01T02:27:46;9.70;96.70
2873;DHT22;1444;49.166;7.312;2023-05-01T02:30:12;9.70;96.90
2873;DHT22;1444;49.166;7.312;2023-05-01T02:32:39;9.70;96.80
2873;DHT22;1444;49.166;7.312;2023-05-01T02:35:06;9.70;96.90
2873;DHT22;1444;49.166;7.312;2023-05-01T02:37:33;9.70;96.90
2873;DHT22;1444;49.166;7.312;2023-05-01T02:40:00;9.70;96.80
2873;DHT22;1444;49.166;7.312;2023-05-01T02:42:30;9.70;96.70
2873;DHT22;1444;49.166;7.312;2023-05-01T02:45:01;9.70;96.80
2873;DHT22;1444;49.166;7.312;2023-05-01T02:47:30;9.70;96.80
2873;DHT22;1444;49.166;7.312;2023-05-01T02:49:58;9.70;97.10
2873;DHT22;1444;49.166;7.312;2023-05-01T02:52:26;9.70;97.30
2873;DHT22;1444;49.166;7.312;2023-05-01T02:54:53;9.70;97.60
2873;DHT22;1444;49.166;7.312;2023-05-01T02:57:21;9.80;97.90
2873;DHT22;1444;49.166;7.312;2023-05-01T02:59:49;9.80;98.00
2873;DHT22;1444;49.166;7.312;2023-05-01T03:02:16;9.90;98.10
2873;DHT22;1444;49.166;7.312;2023-05-01T03:04:43;9.90;98.20
2873;DHT22;1444;49.166;7.312;2023-05-01T03:07:10;10.00;97.60
2873;DHT22;1444;49.166;7.312;2023-05-01T03:09:37;10.00;97.80
2873;DHT22;1444;49.166;7.312;2023-05-01T03:12:04;10.10;97.90
2873;DHT22;1444;49.166;7.312;2023-05-01T03:14:31;10.10;98.20
2873;DHT22;1444;49.166;7.312;2023-05-01T03:16:59;10.00;98.40
2873;DHT22;1444;49.166;7.312;2023-05-01T03:19:26;10.00;98.60
2873;DHT22;1444;49.166;7.312;2023-05-01T03:21:53;10.00;98.90
2873;DHT22;1444;49.166;7.312;2023-05-01T03:24:20;9.90;99.80
2873;DHT22;1444;49.166;7.312;2023-05-01T03:26:47;9.90;99.90
2873;DHT22;1444;49.166;7.312;2023-05-01T03:29:13;9.90;99.90
2873;DHT22;1444;49.166;7.312;2023-05-01T03:31:40;9.90;99.90
2873;DHT22;1444;49.166;7.312;2023-05-01T03:34:08;9.90;99.90
2873;DHT22;1444;49.166;7.312;2023-05-01T03:36:35;9.80;99.90
2873;DHT22;1444;49.166;7.312;2023-05-01T03:39:02;9.90;99.90
2873;DHT22;1444;49.166;7.312;2023-05-01T03:41:29;9.80;99.90
2873;DHT22;1444;49.166;7.312;2023-05-01T03:43:55;9.80;99.90
2873;DHT22;1444;49.166;7.312;2023-05-01T03:46:22;9.80;99.90
2873;DHT22;1444;49.166;7.312;2023-05-01T03:48:49;9.80;99.90
2873;DHT22;1444;49.166;7.312;2023-05-01T03:51:17;9.80;99.90
2873;DHT22;1444;49.166;7.312;2023-05-01T03:53:46;9.80;99.90
2873;DHT22;1444;49.166;7.312;2023-05-01T03:56:13;9.90;99.90
2873;DHT22;1444;49.166;7.312;2023-05-01T03:58:40;9.90;99.90
2873;DHT22;1444;49.166;7.312;2023-05-01T04:01:07;10.00;99.90
2873;DHT22;1444;49.166;7.312;2023-05-01T04:03:33;10.00;99.90
2873;DHT22;1444;49.166;7.312;2023-05-01T04:06:00;10.10;99.90
2873;DHT22;1444;49.166;7.312;2023-05-01T04:08:29;10.10;99.90
2873;DHT22;1444;49.166;7.312;2023-05-01T04:10:55;10.10;99.90
2873;DHT22;1444;49.166;7.312;2023-05-01T04:13:22;10.10;99.90
2873;DHT22;1444;49.166;7.312;2023-05-01T04:15:49;10.10;99.90
2873;DHT22;1444;49.166;7.312;2023-05-01T04:18:16;10.20;99.90
2873;DHT22;1444;49.166;7.312;2023-05-01T04:20:42;10.30;99.90
2873;DHT22;1444;49.166;7.312;2023-05-01T04:23:09;10.40;99.90
2873;DHT22;1444;49.166;7.312;2023-05-01T04:25:38;10.40;99.70
2873;DHT22;1444;49.166;7.312;2023-05-01T04:28:05;10.50;99.60
2873;DHT22;1444;49.166;7.312;2023-05-01T04:30:32;10.60;99.50
2873;DHT22;1444;49.166;7.312;2023-05-01T04:32:58;10.60;99.50
2873;DHT22;1444;49.166;7.312;2023-05-01T04:35:26;10.70;99.50
2873;DHT22;1444;49.166;7.312;2023-05-01T04:37:53;10.70;99.40
2873;DHT22;1444;49.166;7.312;2023-05-01T04:40:19;10.80;99.50
2873;DHT22;1444;49.166;7.312;2023-05-01T04:42:47;10.70;99.50
2873;DHT22;1444;49.166;7.312;2023-05-01T04:45:14;10.70;99.60
2873;DHT22;1444;49.166;7.312;2023-05-01T04:47:41;10.70;99.70
2873;DHT22;1444;49.166;7.312;2023-05-01T04:50:09;10.70;99.80
2873;DHT22;1444;49.166;7.312;2023-05-01T04:52:36;10.80;99.80
2873;DHT22;1444;49.166;7.312;2023-05-01T04:55:03;10.80;99.70
2873;DHT22;1444;49.166;7.312;2023-05-01T04:57:30;10.90;99.70
2873;DHT22;1444;49.166;7.312;2023-05-01T04:59:58;11.00;99.60
2873;DHT22;1444;49.166;7.312;2023-05-01T05:02:25;11.00;99.50
2873;DHT22;1444;49.166;7.312;2023-05-01T05:04:51;11.10;99.50
2873;DHT22;1444;49.166;7.312;2023-05-01T05:07:19;11.10;99.50
2873;DHT22;1444;49.166;7.312;2023-05-01T05:09:45;11.00;99.60
2873;DHT22;1444;49.166;7.312;2023-05-01T05:12:12;11.10;99.60
2873;DHT22;1444;49.166;7.312;2023-05-01T05:14:39;11.00;99.60
2873;DHT22;1444;49.166;7.312;2023-05-01T05:17:07;11.00;99.70
2873;DHT22;1444;49.166;7.312;2023-05-01T05:19:34;11.10;99.80
2873;DHT22;1444;49.166;7.312;2023-05-01T05:22:01;11.20;99.80
2873;DHT22;1444;49.166;7.312;2023-05-01T05:24:28;11.20;99.90
2873;DHT22;1444;49.166;7.312;2023-05-01T05:26:55;11.30;99.80
2873;DHT22;1444;49.166;7.312;2023-05-01T05:29:22;11.50;99.90
2873;DHT22;1444;49.166;7.312;2023-05-01T05:31:49;11.60;99.80
2873;DHT22;1444;49.166;7.312;2023-05-01T05:34:17;11.70;99.60
2873;DHT22;1444;49.166;7.312;2023-05-01T05:36:44;11.90;99.70
2873;DHT22;1444;49.166;7.312;2023-05-01T05:39:10;12.00;99.40
2873;DHT22;1444;49.166;7.312;2023-05-01T05:41:37;12.20;99.60
2873;DHT22;1444;49.166;7.312;2023-05-01T05:44:04;12.30;99.60
2873;DHT22;1444;49.166;7.312;2023-05-01T05:46:30;12.40;99.80
2873;DHT22;1444;49.166;7.312;2023-05-01T05:48:57;12.50;99.50
2873;DHT22;1444;49.166;7.312;2023-05-01T05:51:25;12.60;99.10
2873;DHT22;1444;49.166;7.312;2023-05-01T05:53:52;12.70;99.20
2873;DHT22;1444;49.166;7.312;2023-05-01T05:56:19;12.80;99.50
2873;DHT22;1444;49.166;7.312;2023-05-01T05:58:46;12.90;99.40
2873;DHT22;1444;49.166;7.312;2023-05-01T06:01:12;12.90;99.10
2873;DHT22;1444;49.166;7.312;2023-05-01T06:03:39;12.90;99.20
2873;DHT22;1444;49.166;7.312;2023-05-01T06:06:06;12.80;98.60
2873;DHT22;1444;49.166;7.312;2023-05-01T06:08:34;12.80;98.50
2873;DHT22;1444;49.166;7.312;2023-05-01T06:11:02;12.80;98.80
2873;DHT22;1444;49.166;7.312;2023-05-01T06:13:29;12.80;98.70
2873;DHT22;1444;49.166;7.312;2023-05-01T06:15:55;12.70;98.70
2873;DHT22;1444;49.166;7.312;2023-05-01T06:18:22;12.60;98.70
2873;DHT22;1444;49.166;7.312;2023-05-01T06:20:49;12.60;99.10
2873;DHT22;1444;49.166;7.312;2023-05-01T06:23:16;12.70;99.40
2873;DHT22;1444;49.166;7.312;2023-05-01T06:25:45;12.70;99.10
2873;DHT22;1444;49.166;7.312;2023-05-01T06:28:13;12.80;99.30
2873;DHT22;1444;49.166;7.312;2023-05-01T06:30:40;12.90;99.00
2873;DHT22;1444;49.166;7.312;2023-05-01T06:33:07;13.00;98.70
2873;DHT22;1444;49.166;7.312;2023-05-01T06:35:34;13.10;98.60
2873;DHT22;1444;49.166;7.312;2023-05-01T06:38:01;13.10;98.40
2873;DHT22;1444;49.166;7.312;2023-05-01T06:40:28;13.20;98.30
2873;DHT22;1444;49.166;7.312;2023-05-01T06:42:57;13.20;98.40
2873;DHT22;1444;49.166;7.312;2023-05-01T06:45:24;13.10;98.50
2873;DHT22;1444;49.166;7.312;2023-05-01T06:47:50;13.10;98.30
2873;DHT22;1444;49.166;7.312;2023-05-01T06:50:18;13.20;98.60
2873;DHT22;1444;49.166;7.312;2023-05-01T06:52:45;13.20;98.60
2873;DHT22;1444;49.166;7.312;2023-05-01T06:55:11;13.30;98.90
2873;DHT22;1444;49.166;7.312;2023-05-01T06:57:38;13.40;98.90
2873;DHT22;1444;49.166;7.312;2023-05-01T07:00:08;13.50;99.30
2873;DHT22;1444;49.166;7.312;2023-05-01T07:02:36;13.60;98.90
2873;DHT22;1444;49.166;7.312;2023-05-01T07:05:05;13.80;98.40
2873;DHT22;1444;49.166;7.312;2023-05-01T07:07:32;13.80;98.20
2873;DHT22;1444;49.166;7.312;2023-05-01T07:09:58;13.90;98.10
2873;DHT22;1444;49.166;7.312;2023-05-01T07:12:25;14.10;98.40
2873;DHT22;1444;49.166;7.312;2023-05-01T07:14:52;14.20;98.20
2873;DHT22;1444;49.166;7.312;2023-05-01T07:17:20;14.30;98.30
2873;DHT22;1444;49.166;7.312;2023-05-01T07:19:46;14.50;97.60
2873;DHT22;1444;49.166;7.312;2023-05-01T07:22:14;14.60;97.50
2873;DHT22;1444;49.166;7.312;2023-05-01T07:27:09;14.70;97.30
2873;DHT22;1444;49.166;7.312;2023-05-01T07:29:37;14.80;97.70
2873;DHT22;1444;49.166;7.312;2023-05-01T07:32:04;15.00;97.10
2873;DHT22;1444;49.166;7.312;2023-05-01T07:34:33;15.10;97.10
2873;DHT22;1444;49.166;7.312;2023-05-01T07:36:59;15.10;97.10
2873;DHT22;1444;49.166;7.312;2023-05-01T07:39:26;15.20;96.80
2873;DHT22;1444;49.166;7.312;2023-05-01T07:41:53;15.40;96.80
2873;DHT22;1444;49.166;7.312;2023-05-01T07:44:19;15.50;97.00
2873;DHT22;1444;49.166;7.312;2023-05-01T07:46:46;15.80;97.10
2873;DHT22;1444;49.166;7.312;2023-05-01T07:49:13;16.10;97.00
2873;DHT22;1444;49.166;7.312;2023-05-01T07:51:41;16.40;96.90
2873;DHT22;1444;49.166;7.312;2023-05-01T07:54:08;16.60;95.90
2873;DHT22;1444;49.166;7.312;2023-05-01T07:56:35;16.80;94.70
2873;DHT22;1444;49.166;7.312;2023-05-01T07:59:02;17.00;95.50
2873;DHT22;1444;49.166;7.312;2023-05-01T08:01:28;17.00;94.90
2873;DHT22;1444;49.166;7.312;2023-05-01T08:03:55;17.10;94.80
2873;DHT22;1444;49.166;7.312;2023-05-01T08:06:22;18.40;94.80
2873;DHT22;1444;49.166;7.312;2023-05-01T08:08:50;17.00;93.30
2873;DHT22;1444;49.166;7.312;2023-05-01T08:11:16;16.90;92.60
2873;DHT22;1444;49.166;7.312;2023-05-01T08:13:43;16.80;93.40
2873;DHT22;1444;49.166;7.312;2023-05-01T08:16:10;16.60;92.80
2873;DHT22;1444;49.166;7.312;2023-05-01T08:18:37;16.50;92.90
2873;DHT22;1444;49.166;7.312;2023-05-01T08:21:04;16.50;93.50
2873;DHT22;1444;49.166;7.312;2023-05-01T08:23:31;16.60;94.20
2873;DHT22;1444;49.166;7.312;2023-05-01T08:25:59;16.60;94.10
2873;DHT22;1444;49.166;7.312;2023-05-01T08:28:26;16.70;94.10
2873;DHT22;1444;49.166;7.312;2023-05-01T08:30:52;16.70;93.40
2873;DHT22;1444;49.166;7.312;2023-05-01T08:33:19;16.80;93.80
2873;DHT22;1444;49.166;7.312;2023-05-01T08:35:47;16.90;94.60
2873;DHT22;1444;49.166;7.312;2023-05-01T08:38:13;17.00;93.60
2873;DHT22;1444;49.166;7.312;2023-05-01T08:40:43;17.10;94.30
2873;DHT22;1444;49.166;7.312;2023-05-01T08:43:14;17.10;93.80
2873;DHT22;1444;49.166;7.312;2023-05-01T08:45:41;17.30;93.70
2873;DHT22;1444;49.166;7.312;2023-05-01T08:48:09;17.50;93.90
2873;DHT22;1444;49.166;7.312;2023-05-01T08:50:38;17.60;93.20
2873;DHT22;1444;49.166;7.312;2023-05-01T08:53:05;17.90;93.80
2873;DHT22;1444;49.166;7.312;2023-05-01T08:55:33;18.00;93.50
2873;DHT22;1444;49.166;7.312;2023-05-01T08:58:01;18.10;93.50
2873;DHT22;1444;49.166;7.312;2023-05-01T09:00:30;17.80;91.70
2873;DHT22;1444;49.166;7.312;2023-05-01T09:03:00;17.70;91.90
2873;DHT22;1444;49.166;7.312;2023-05-01T09:05:27;17.80;92.30
2873;DHT22;1444;49.166;7.312;2023-05-01T09:07:54;17.60;91.70
2873;DHT22;1444;49.166;7.312;2023-05-01T09:10:21;17.40;91.00
2873;DHT22;1444;49.166;7.312;2023-05-01T09:12:53;17.60;93.20
2873;DHT22;1444;49.166;7.312;2023-05-01T09:15:20;17.90;93.00
2873;DHT22;1444;49.166;7.312;2023-05-01T09:17:49;18.10;93.70
2873;DHT22;1444;49.166;7.312;2023-05-01T09:20:17;18.40;92.80
2873;DHT22;1444;49.166;7.312;2023-05-01T09:22:44;18.70;92.40
2873;DHT22;1444;49.166;7.312;2023-05-01T09:25:11;18.70;91.70
2873;DHT22;1444;49.166;7.312;2023-05-01T09:27:38;18.70;91.80
2873;DHT22;1444;49.166;7.312;2023-05-01T09:30:05;18.60;91.60
2873;DHT22;1444;49.166;7.312;2023-05-01T09:32:33;18.70;91.30
2873;DHT22;1444;49.166;7.312;2023-05-01T09:35:10;18.60;91.40
2873;DHT22;1444;49.166;7.312;2023-05-01T09:37:38;18.50;92.10
2873;DHT22;1444;49.166;7.312;2023-05-01T09:40:07;18.40;91.80
2873;DHT22;1444;49.166;7.312;2023-05-01T09:42:49;18.20;91.80
2873;DHT22;1444;49.166;7.312;2023-05-01T09:45:16;18.20;92.10
2873;DHT22;1444;49.166;7.312;2023-05-01T09:47:44;18.20;92.40
2873;DHT22;1444;49.166;7.312;2023-05-01T09:50:27;18.00;92.30
2873;DHT22;1444;49.166;7.312;2023-05-01T09:52:54;18.00;91.80
2873;DHT22;1444;49.166;7.312;2023-05-01T09:55:21;18.00;91.80
2873;DHT22;1444;49.166;7.312;2023-05-01T09:57:49;18.20;91.60
2873;DHT22;1444;49.166;7.312;2023-05-01T10:00:16;18.20;92.10
2873;DHT22;1444;49.166;7.312;2023-05-01T10:02:47;18.20;91.40
2873;DHT22;1444;49.166;7.312;2023-05-01T10:05:16;18.20;92.30
2873;DHT22;1444;49.166;7.312;2023-05-01T10:07:55;18.30;92.60
2873;DHT22;1444;49.166;7.312;2023-05-01T10:10:22;18.40;91.90
2873;DHT22;1444;49.166;7.312;2023-05-01T10:12:49;18.60;91.70
2873;DHT22;1444;49.166;7.312;2023-05-01T10:15:16;18.60;91.20
2873;DHT22;1444;49.166;7.312;2023-05-01T10:17:45;18.60;91.00
2873;DHT22;1444;49.166;7.312;2023-05-01T10:20:13;18.70;91.70
2873;DHT22;1444;49.166;7.312;2023-05-01T10:22:41;18.80;90.80
2873;DHT22;1444;49.166;7.312;2023-05-01T10:25:09;18.60;90.90
2873;DHT22;1444;49.166;7.312;2023-05-01T10:27:37;18.60;91.80
2873;DHT22;1444;49.166;7.312;2023-05-01T10:30:06;18.60;91.40
2873;DHT22;1444;49.166;7.312;2023-05-01T10:32:34;18.50;90.90
2873;DHT22;1444;49.166;7.312;2023-05-01T10:35:04;18.50;91.70
2873;DHT22;1444;49.166;7.312;2023-05-01T10:37:36;18.60;92.80
2873;DHT22;1444;49.166;7.312;2023-05-01T10:43:19;19.00;91.10
2873;DHT22;1444;49.166;7.312;2023-05-01T10:45:51;19.10;89.70
2873;DHT22;1444;49.166;7.312;2023-05-01T10:48:55;19.20;90.10
2873;DHT22;1444;49.166;7.312;2023-05-01T10:51:22;19.40;90.70
2873;DHT22;1444;49.166;7.312;2023-05-01T10:54:22;19.40;88.10
2873;DHT22;1444;49.166;7.312;2023-05-01T10:56:50;19.50;89.80
2873;DHT22;1444;49.166;7.312;2023-05-01T10:59:18;19.70;90.50
2873;DHT22;1444;49.166;7.312;2023-05-01T11:01:45;19.80;89.70
2873;DHT22;1444;49.166;7.312;2023-05-01T11:09:46;20.00;90.90
2873;DHT22;1444;49.166;7.312;2023-05-01T11:12:14;20.10;90.10
2873;DHT22;1444;49.166;7.312;2023-05-01T11:15:09;20.30;90.00
2873;DHT22;1444;49.166;7.312;2023-05-01T11:17:46;20.50;90.80
2873;DHT22;1444;49.166;7.312;2023-05-01T11:23:26;20.60;90.10
2873;DHT22;1444;49.166;7.312;2023-05-01T11:26:03;20.70;89.50
2873;DHT22;1444;49.166;7.312;2023-05-01T11:28:33;20.50;86.00
2873;DHT22;1444;49.166;7.312;2023-05-01T11:31:01;20.50;88.60
2873;DHT22;1444;49.166;7.312;2023-05-01T11:33:28;20.50;88.50
2873;DHT22;1444;49.166;7.312;2023-05-01T11:36:01;20.30;89.60
2873;DHT22;1444;49.166;7.312;2023-05-01T11:38:28;20.30;90.40
2873;DHT22;1444;49.166;7.312;2023-05-01T11:40:59;20.20;90.20
2873;DHT22;1444;49.166;7.312;2023-05-01T11:43:26;20.20;88.30
2873;DHT22;1444;49.166;7.312;2023-05-01T11:45:53;20.10;87.80
2873;DHT22;1444;49.166;7.312;2023-05-01T11:48:29;20.20;88.40
2873;DHT22;1444;49.166;7.312;2023-05-01T11:50:56;20.20;90.40
2873;DHT22;1444;49.166;7.312;2023-05-01T11:53:23;20.00;89.70
2873;DHT22;1444;49.166;7.312;2023-05-01T11:55:50;20.00;91.30
2873;DHT22;1444;49.166;7.312;2023-05-01T11:58:17;20.10;90.50
2873;DHT22;1444;49.166;7.312;2023-05-01T12:00:43;20.20;90.80
2873;DHT22;1444;49.166;7.312;2023-05-01T12:03:11;20.20;90.40
2873;DHT22;1444;49.166;7.312;2023-05-01T12:05:40;20.40;90.80
2873;DHT22;1444;49.166;7.312;2023-05-01T12:08:09;20.30;90.00
2873;DHT22;1444;49.166;7.312;2023-05-01T12:10:37;20.50;91.90
2873;DHT22;1444;49.166;7.312;2023-05-01T12:15:35;20.40;90.20
2873;DHT22;1444;49.166;7.312;2023-05-01T12:18:02;20.40;90.30
2873;DHT22;1444;49.166;7.312;2023-05-01T12:20:36;20.20;87.90
2873;DHT22;1444;49.166;7.312;2023-05-01T12:23:06;20.00;89.40
2873;DHT22;1444;49.166;7.312;2023-05-01T12:25:33;20.10;91.10
2873;DHT22;1444;49.166;7.312;2023-05-01T12:28:01;20.00;90.80
2873;DHT22;1444;49.166;7.312;2023-05-01T12:30:29;20.40;89.40
2873;DHT22;1444;49.166;7.312;2023-05-01T12:32:56;20.50;88.30
2873;DHT22;1444;49.166;7.312;2023-05-01T12:35:28;20.80;90.10
2873;DHT22;1444;49.166;7.312;2023-05-01T12:37:55;20.80;87.90
2873;DHT22;1444;49.166;7.312;2023-05-01T12:40:25;21.00;87.20
2873;DHT22;1444;49.166;7.312;2023-05-01T12:42:55;20.90;85.00
2873;DHT22;1444;49.166;7.312;2023-05-01T12:45:23;21.10;85.70
2873;DHT22;1444;49.166;7.312;2023-05-01T12:47:50;21.10;85.20
2873;DHT22;1444;49.166;7.312;2023-05-01T12:50:18;21.40;88.50
2873;DHT22;1444;49.166;7.312;2023-05-01T12:52:44;21.30;85.90
2873;DHT22;1444;49.166;7.312;2023-05-01T12:55:11;21.20;87.90
2873;DHT22;1444;49.166;7.312;2023-05-01T12:57:51;21.20;86.80
2873;DHT22;1444;49.166;7.312;2023-05-01T13:00:19;21.20;83.90
2873;DHT22;1444;49.166;7.312;2023-05-01T13:02:47;21.00;82.50
2873;DHT22;1444;49.166;7.312;2023-05-01T13:05:14;20.80;83.30
2873;DHT22;1444;49.166;7.312;2023-05-01T13:07:47;20.80;84.30
2873;DHT22;1444;49.166;7.312;2023-05-01T13:10:14;21.90;89.50
2873;DHT22;1444;49.166;7.312;2023-05-01T13:12:44;20.90;83.60
2873;DHT22;1444;49.166;7.312;2023-05-01T13:15:19;21.00;82.00
2873;DHT22;1444;49.166;7.312;2023-05-01T13:17:46;21.10;86.20
2873;DHT22;1444;49.166;7.312;2023-05-01T13:20:14;21.30;84.30
2873;DHT22;1444;49.166;7.312;2023-05-01T13:22:41;21.60;81.00
2873;DHT22;1444;49.166;7.312;2023-05-01T13:25:14;22.00;83.30
2873;DHT22;1444;49.166;7.312;2023-05-01T13:27:46;22.10;82.60
2873;DHT22;1444;49.166;7.312;2023-05-01T13:30:15;22.00;80.60
2873;DHT22;1444;49.166;7.312;2023-05-01T13:32:45;22.00;83.60
2873;DHT22;1444;49.166;7.312;2023-05-01T13:35:21;22.00;81.20
2873;DHT22;1444;49.166;7.312;2023-05-01T13:37:48;21.90;80.10
2873;DHT22;1444;49.166;7.312;2023-05-01T13:40:15;21.80;78.30
2873;DHT22;1444;49.166;7.312;2023-05-01T13:42:43;21.60;81.80
2873;DHT22;1444;49.166;7.312;2023-05-01T13:45:11;21.60;83.50
2873;DHT22;1444;49.166;7.312;2023-05-01T13:47:38;21.50;84.70
2873;DHT22;1444;49.166;7.312;2023-05-01T13:50:09;20.90;83.90
2873;DHT22;1444;49.166;7.312;2023-05-01T13:52:41;20.60;83.90
2873;DHT22;1444;49.166;7.312;2023-05-01T13:55:08;20.40;84.80
2873;DHT22;1444;49.166;7.312;2023-05-01T13:57:36;20.10;85.00
2873;DHT22;1444;49.166;7.312;2023-05-01T14:00:05;20.00;86.20
2873;DHT22;1444;49.166;7.312;2023-05-01T14:02:33;20.00;84.80
2873;DHT22;1444;49.166;7.312;2023-05-01T14:05:06;19.90;84.90
2873;DHT22;1444;49.166;7.312;2023-05-01T14:07:39;20.00;87.20
2873;DHT22;1444;49.166;7.312;2023-05-01T14:10:08;20.10;86.70
2873;DHT22;1444;49.166;7.312;2023-05-01T14:12:35;21.20;88.30
2873;DHT22;1444;49.166;7.312;2023-05-01T14:15:04;20.20;86.40
2873;DHT22;1444;49.166;7.312;2023-05-01T14:17:34;20.40;84.60
2873;DHT22;1444;49.166;7.312;2023-05-01T14:20:02;20.60;85.10
2873;DHT22;1444;49.166;7.312;2023-05-01T14:22:39;20.80;87.30
2873;DHT22;1444;49.166;7.312;2023-05-01T14:25:20;20.80;86.20
2873;DHT22;1444;49.166;7.312;2023-05-01T14:27:47;20.80;88.40
2873;DHT22;1444;49.166;7.312;2023-05-01T14:30:22;20.90;86.10
2873;DHT22;1444;49.166;7.312;2023-05-01T14:32:50;21.20;83.80
2873;DHT22;1444;49.166;7.312;2023-05-01T14:35:21;21.50;82.90
2873;DHT22;1444;49.166;7.312;2023-05-01T14:37:49;21.50;85.20
2873;DHT22;1444;49.166;7.312;2023-05-01T14:40:17;21.50;84.30
2873;DHT22;1444;49.166;7.312;2023-05-01T14:42:44;21.40;82.70
2873;DHT22;1444;49.166;7.312;2023-05-01T14:45:12;21.40;84.70
2873;DHT22;1444;49.166;7.312;2023-05-01T14:47:40;21.40;84.40
2873;DHT22;1444;49.166;7.312;2023-05-01T14:50:10;21.30;83.90
2873;DHT22;1444;49.166;7.312;2023-05-01T14:52:39;21.20;85.20
2873;DHT22;1444;49.166;7.312;2023-05-01T14:55:10;21.20;82.00
2873;DHT22;1444;49.166;7.312;2023-05-01T14:57:37;20.90;83.30
2873;DHT22;1444;49.166;7.312;2023-05-01T15:00:04;20.80;81.50
2873;DHT22;1444;49.166;7.312;2023-05-01T15:02:32;20.70;84.70
2873;DHT22;1444;49.166;7.312;2023-05-01T15:04:59;20.60;82.80
2873;DHT22;1444;49.166;7.312;2023-05-01T15:07:26;20.50;79.80
2873;DHT22;1444;49.166;7.312;2023-05-01T15:09:52;19.70;86.70
2873;DHT22;1444;49.166;7.312;2023-05-01T15:12:20;19.50;89.20
2873;DHT22;1444;49.166;7.312;2023-05-01T15:14:47;18.90;90.40
2873;DHT22;1444;49.166;7.312;2023-05-01T15:17:14;18.40;92.80
2873;DHT22;1444;49.166;7.312;2023-05-01T15:19:40;18.00;93.40
2873;DHT22;1444;49.166;7.312;2023-05-01T15:22:07;17.70;93.70
2873;DHT22;1444;49.166;7.312;2023-05-01T15:24:34;17.30;94.50
2873;DHT22;1444;49.166;7.312;2023-05-01T15:27:00;17.00;94.40
2873;DHT22;1444;49.166;7.312;2023-05-01T15:29:29;16.70;94.90
2873;DHT22;1444;49.166;7.312;2023-05-01T15:31:56;16.50;94.80
2873;DHT22;1444;49.166;7.312;2023-05-01T15:34:23;16.40;95.10
2873;DHT22;1444;49.166;7.312;2023-05-01T15:36:50;16.30;95.40
2873;DHT22;1444;49.166;7.312;2023-05-01T15:39:16;16.40;95.70
2873;DHT22;1444;49.166;7.312;2023-05-01T15:41:44;16.50;95.80
2873;DHT22;1444;49.166;7.312;2023-05-01T15:44:11;16.50;95.80
2873;DHT22;1444;49.166;7.312;2023-05-01T15:46:39;16.70;96.50
2873;DHT22;1444;49.166;7.312;2023-05-01T15:49:08;16.90;96.70
2873;DHT22;1444;49.166;7.312;2023-05-01T15:51:35;17.00;97.00
2873;DHT22;1444;49.166;7.312;2023-05-01T15:54:02;17.10;97.60
2873;DHT22;1444;49.166;7.312;2023-05-01T15:56:33;17.00;98.10
2873;DHT22;1444;49.166;7.312;2023-05-01T15:59:01;16.80;98.40
2873;DHT22;1444;49.166;7.312;2023-05-01T16:01:29;16.50;98.60
2873;DHT22;1444;49.166;7.312;2023-05-01T16:03:57;16.50;98.30
2873;DHT22;1444;49.166;7.312;2023-05-01T16:06:24;16.70;98.30
2873;DHT22;1444;49.166;7.312;2023-05-01T16:08:52;16.90;98.80
2873;DHT22;1444;49.166;7.312;2023-05-01T16:11:19;17.10;99.00
2873;DHT22;1444;49.166;7.312;2023-05-01T16:13:46;17.30;98.90
2873;DHT22;1444;49.166;7.312;2023-05-01T16:16:26;17.30;96.80
2873;DHT22;1444;49.166;7.312;2023-05-01T16:18:54;17.40;98.00
2873;DHT22;1444;49.166;7.312;2023-05-01T16:21:23;17.50;97.60
2873;DHT22;1444;49.166;7.312;2023-05-01T16:23:50;17.70;97.60
2873;DHT22;1444;49.166;7.312;2023-05-01T16:26:28;17.80;98.30
2873;DHT22;1444;49.166;7.312;2023-05-01T16:28:58;17.80;98.10
2873;DHT22;1444;49.166;7.312;2023-05-01T16:31:25;17.80;98.10